Time;durP1;ratioP1;P1;durP2;ratioP2;P2;SDS_P1;SDS_P2;PMS_P1;PMS_P2;Temp;Humidity;BMP_temperature;BMP_pressure;BME280_temperature;BME280_humidity;BME280_pressure;Samples;Min_cycle;Max_cycle;Signal;HPM_P1;HPM_P2
2022/01/05 00:02:26;;;;;;;3.08;2.38;;;9.50;73.30;;;;;;4973189;28;20208;-78
2022/01/05 00:04:53;;;;;;;2.58;1.80;;;9.50;73.30;;;;;;4987927;28;21154;-78
2022/01/05 00:07:21;;;;;;;4.55;1.50;;;9.40;73.00;;;;;;4991436;28;20726;-79
2022/01/05 00:09:51;;;;;;;2.85;2.00;;;9.40;73.00;;;;;;4990255;28;20228;-78
2022/01/05 00:12:24;;;;;;;2.20;1.75;;;9.40;73.20;;;;;;4991221;28;20559;-79
2022/01/05 00:14:57;;;;;;;2.80;2.15;;;9.30;72.80;;;;;;4990479;28;20646;-80
2022/01/05 00:17:25;;;;;;;2.38;1.73;;;9.30;72.80;;;;;;4991312;28;20188;-80
2022/01/05 00:19:57;;;;;;;2.40;1.55;;;9.30;73.00;;;;;;4990114;28;20311;-79
2022/01/05 00:22:31;;;;;;;2.22;1.98;;;9.20;73.20;;;;;;4991255;28;20276;-77
2022/01/05 00:25:00;;;;;;;2.20;1.67;;;9.20;73.50;;;;;;4976723;28;20197;-80
2022/01/05 00:27:29;;;;;;;2.65;1.98;;;9.20;73.80;;;;;;4973156;28;20280;-80
2022/01/05 00:30:01;;;;;;;2.03;1.48;;;9.10;73.90;;;;;;4981405;28;20185;-77
2022/01/05 00:32:29;;;;;;;2.05;1.30;;;8.90;73.70;;;;;;4991123;28;20239;-80
2022/01/05 00:35:00;;;;;;;1.95;0.90;;;8.90;73.90;;;;;;4990367;28;20219;-79
2022/01/05 00:37:28;;;;;;;1.70;0.80;;;8.70;73.20;;;;;;4990784;28;21320;-76
2022/01/05 00:39:55;;;;;;;1.55;0.68;;;8.60;72.50;;;;;;4984733;28;20185;-80
2022/01/05 00:42:24;;;;;;;2.15;0.70;;;8.40;72.20;;;;;;4972971;28;20197;-80
2022/01/05 00:44:54;;;;;;;1.48;0.65;;;8.30;72.00;;;;;;4976843;28;20276;-79
2022/01/05 00:47:26;;;;;;;1.83;0.88;;;8.10;72.10;;;;;;4972861;28;20197;-79
2022/01/05 00:49:55;;;;;;;1.60;0.80;;;8.10;72.40;;;;;;4975565;28;20271;-78
2022/01/05 00:52:22;;;;;;;1.98;0.90;;;8.00;72.50;;;;;;4976372;28;20205;-79
2022/01/05 00:54:49;;;;;;;1.67;0.70;;;8.00;72.40;;;;;;4993658;28;20212;-79
2022/01/05 00:57:19;;;;;;;2.15;1.00;;;8.00;72.40;;;;;;4996440;28;20600;-79
2022/01/05 00:59:48;;;;;;;1.60;0.88;;;7.90;72.40;;;;;;4995632;28;20546;-79
2022/01/05 01:02:20;;;;;;;2.33;0.82;;;7.80;72.50;;;;;;4996517;28;20201;-79
2022/01/05 01:04:48;;;;;;;2.15;0.85;;;7.80;72.20;;;;;;4995812;28;20189;-77
2022/01/05 01:07:30;;;;;;;1.77;0.98;;;7.70;71.50;;;;;;4996465;28;20288;-78
2022/01/05 01:09:57;;;;;;;1.60;0.70;;;7.70;71.60;;;;;;4995608;28;20181;-79
2022/01/05 01:12:24;;;;;;;1.55;0.82;;;7.60;71.70;;;;;;4996269;28;20205;-79
2022/01/05 01:14:53;;;;;;;2.13;1.05;;;7.60;71.50;;;;;;4995611;28;20224;-78
2022/01/05 01:17:22;;;;;;;2.20;0.80;;;7.50;71.90;;;;;;4995520;28;20196;-79
2022/01/05 01:19:52;;;;;;;1.60;0.70;;;7.50;72.70;;;;;;4995030;28;20266;-78
2022/01/05 01:22:28;;;;;;;1.50;0.65;;;7.50;73.10;;;;;;4995600;28;20561;-78
2022/01/05 01:24:55;;;;;;;1.52;0.70;;;7.50;73.20;;;;;;4993007;28;20273;-79
2022/01/05 01:27:23;;;;;;;2.67;0.70;;;7.40;73.30;;;;;;4995911;28;20598;-79
2022/01/05 01:29:50;;;;;;;1.40;0.60;;;7.40;73.50;;;;;;4994821;28;20232;-78
2022/01/05 01:32:19;;;;;;;1.80;0.70;;;7.40;73.70;;;;;;4995428;28;20193;-79
2022/01/05 01:34:46;;;;;;;1.40;0.55;;;7.30;73.50;;;;;;4995346;28;20216;-79
2022/01/05 01:37:14;;;;;;;1.50;0.60;;;7.30;73.90;;;;;;4995846;28;20217;-79
2022/01/05 01:39:41;;;;;;;1.95;0.80;;;7.30;73.90;;;;;;4995286;28;20244;-79
2022/01/05 01:42:09;;;;;;;1.40;0.50;;;7.30;73.70;;;;;;4995758;28;20193;-78
2022/01/05 01:44:38;;;;;;;1.75;0.75;;;7.30;74.30;;;;;;4995271;28;20212;-79
2022/01/05 01:47:23;;;;;;;1.70;0.80;;;7.30;74.10;;;;;;4995916;28;20228;-79
2022/01/05 01:49:52;;;;;;;2.00;0.80;;;7.20;73.20;;;;;;4995276;28;20252;-79
2022/01/05 01:52:25;;;;;;;1.70;0.90;;;7.00;74.30;;;;;;4995532;28;20193;-79
2022/01/05 01:54:58;;;;;;;1.40;0.60;;;6.90;74.10;;;;;;4995025;28;20281;-79
2022/01/05 01:57:26;;;;;;;1.70;0.77;;;6.80;74.70;;;;;;4995560;28;20196;-79
2022/01/05 01:59:57;;;;;;;1.60;0.80;;;6.70;74.50;;;;;;4994906;28;20197;-78
2022/01/05 02:02:29;;;;;;;1.50;0.60;;;6.60;75.20;;;;;;4995257;28;20196;-78
2022/01/05 02:04:58;;;;;;;1.50;0.60;;;6.50;75.50;;;;;;4994111;28;20209;-75
2022/01/05 02:07:26;;;;;;;1.50;0.60;;;6.50;75.50;;;;;;4995405;28;20196;-79
2022/01/05 02:09:53;;;;;;;1.60;0.70;;;6.50;75.20;;;;;;4994732;28;20205;-79
2022/01/05 02:12:26;;;;;;;1.40;0.65;;;6.40;75.90;;;;;;4995258;28;20220;-78
2022/01/05 02:14:54;;;;;;;1.40;0.70;;;6.40;76.20;;;;;;4994676;28;20200;-79
2022/01/05 02:17:28;;;;;;;1.60;0.70;;;6.40;76.40;;;;;;4995006;28;20676;-78
2022/01/05 02:19:58;;;;;;;1.80;0.90;;;6.40;76.90;;;;;;4992781;28;20569;-79
2022/01/05 02:22:26;;;;;;;2.50;1.00;;;6.40;77.20;;;;;;4975500;28;20197;-78
2022/01/05 02:24:54;;;;;;;2.25;1.27;;;6.30;77.60;;;;;;4976915;28;20221;-78
2022/01/05 02:27:21;;;;;;;1.80;1.15;;;6.30;77.70;;;;;;4994878;28;20549;-78
2022/01/05 02:29:56;;;;;;;2.05;1.00;;;6.30;77.50;;;;;;4994213;28;20319;-78
2022/01/05 02:32:23;;;;;;;2.33;0.80;;;6.30;78.00;;;;;;4981759;28;20206;-78
2022/01/05 02:34:51;;;;;;;2.50;0.75;;;6.40;78.30;;;;;;4993174;28;20193;-79
2022/01/05 02:37:18;;;;;;;1.50;0.90;;;6.40;78.40;;;;;;4975385;28;20233;-78
2022/01/05 02:39:47;;;;;;;1.90;0.65;;;6.40;78.30;;;;;;4975316;28;20194;-77
2022/01/05 02:42:26;;;;;;;1.60;0.70;;;6.40;77.50;;;;;;4956009;29;20281;-78
2022/01/05 02:44:54;;;;;;;1.80;0.70;;;6.40;77.90;;;;;;4958518;28;20281;-78
2022/01/05 02:47:21;;;;;;;1.73;0.75;;;6.40;77.50;;;;;;4994205;28;20539;-78
2022/01/05 02:49:49;;;;;;;1.45;0.60;;;6.30;77.40;;;;;;4993697;28;20196;-77
2022/01/05 02:52:18;;;;;;;1.55;0.68;;;6.20;78.00;;;;;;4974935;28;20202;-77
2022/01/05 02:54:48;;;;;;;1.88;0.80;;;6.20;78.00;;;;;;4974907;28;20198;-78
2022/01/05 02:57:16;;;;;;;1.80;0.70;;;6.10;78.80;;;;;;4955786;29;20230;-77
2022/01/05 02:59:43;;;;;;;1.83;0.68;;;6.10;78.90;;;;;;4955590;29;20205;-77
2022/01/05 03:02:10;;;;;;;1.42;0.65;;;6.00;79.00;;;;;;4993161;28;20726;-77
2022/01/05 03:04:42;;;;;;;1.40;0.60;;;6.10;79.30;;;;;;4992657;28;20193;-78
2022/01/05 03:07:13;;;;;;;2.47;0.90;;;6.00;79.30;;;;;;4993268;28;20303;-77
2022/01/05 03:09:41;;;;;;;1.85;0.65;;;5.90;79.70;;;;;;4977652;28;20217;-77
2022/01/05 03:12:13;;;;;;;1.67;0.60;;;5.90;80.50;;;;;;4974782;28;20209;-77
2022/01/05 03:14:41;;;;;;;1.60;0.77;;;6.00;80.80;;;;;;4988996;28;20624;-77
2022/01/05 03:17:13;;;;;;;1.40;0.60;;;6.00;81.30;;;;;;4978763;28;20276;-78
2022/01/05 03:19:44;;;;;;;1.70;1.00;;;6.00;81.60;;;;;;4984771;28;20228;-78
2022/01/05 03:22:12;;;;;;;2.20;0.93;;;6.00;81.10;;;;;;4979458;28;20276;-77
2022/01/05 03:24:44;;;;;;;2.00;1.20;;;6.10;80.90;;;;;;4974559;28;20330;-77
2022/01/05 03:27:13;;;;;;;2.15;0.90;;;6.10;81.50;;;;;;4991109;28;20221;-78
2022/01/05 03:29:41;;;;;;;67.38;38.03;;;6.10;81.30;;;;;;4993796;28;20200;-77
2022/01/05 03:32:10;;;;;;;10.88;6.85;;;6.10;80.70;;;;;;4976279;28;20197;-77
2022/01/05 03:34:41;;;;;;;2.65;1.42;;;6.10;81.10;;;;;;4974445;28;20204;-78
2022/01/05 03:37:09;;;;;;;1.88;0.90;;;6.10;81.10;;;;;;4991283;28;20601;-77
2022/01/05 03:39:36;;;;;;;1.40;0.60;;;6.10;81.70;;;;;;4993852;28;20550;-78
2022/01/05 03:42:04;;;;;;;2.38;0.70;;;6.10;81.60;;;;;;4977264;28;20197;-78
2022/01/05 03:44:34;;;;;;;1.40;0.50;;;6.20;81.70;;;;;;4977039;28;20675;-77
2022/01/05 03:47:15;;;;;;;1.40;0.50;;;6.10;81.00;;;;;;4977039;28;20227;-78
2022/01/05 03:49:44;;;;;;;1.63;0.60;;;6.10;81.60;;;;;;4977507;28;20197;-77
2022/01/05 03:52:11;;;;;;;6.00;0.80;;;6.20;81.60;;;;;;4993675;28;20197;-78
2022/01/05 03:54:43;;;;;;;1.40;0.50;;;6.20;81.20;;;;;;4991687;28;20221;-77
2022/01/05 03:57:13;;;;;;;1.48;0.60;;;6.20;81.40;;;;;;4993767;28;20193;-78
2022/01/05 03:59:42;;;;;;;3.75;1.17;;;6.20;81.00;;;;;;4990147;28;20239;-78
2022/01/05 04:02:09;;;;;;;2.13;0.70;;;6.20;81.00;;;;;;4973991;28;20193;-78
2022/01/05 04:04:36;;;;;;;1.70;0.90;;;6.20;81.10;;;;;;4974878;28;20644;-77
2022/01/05 04:07:04;;;;;;;1.90;1.00;;;6.10;80.80;;;;;;4993321;28;20220;-78
2022/01/05 04:09:32;;;;;;;1.50;0.70;;;6.10;81.60;;;;;;4988096;28;20228;-78
2022/01/05 04:11:59;;;;;;;1.50;0.75;;;6.20;81.60;;;;;;4973886;28;20218;-78
2022/01/05 04:14:27;;;;;;;1.73;0.75;;;6.30;81.90;;;;;;4976414;28;20188;-78
2022/01/05 04:16:55;;;;;;;1.90;1.02;;;6.20;81.30;;;;;;4993339;28;20576;-78
2022/01/05 04:19:23;;;;;;;1.80;0.80;;;6.20;81.70;;;;;;4990009;28;20290;-77
2022/01/05 04:21:53;;;;;;;1.60;0.70;;;6.30;82.20;;;;;;4973736;28;20193;-77
2022/01/05 04:24:21;;;;;;;1.40;0.50;;;6.30;81.40;;;;;;4974525;28;20233;-78
2022/01/05 04:26:52;;;;;;;1.35;0.50;;;6.30;81.50;;;;;;4977228;28;20221;-78
2022/01/05 04:29:20;;;;;;;1.30;0.50;;;6.40;81.70;;;;;;4980970;28;20185;-78
2022/01/05 04:31:47;;;;;;;1.67;1.05;;;6.40;81.50;;;;;;4997001;28;20197;-78
2022/01/05 04:34:18;;;;;;;1.40;0.60;;;6.40;81.10;;;;;;4993348;28;20194;-77
2022/01/05 04:36:46;;;;;;;1.33;0.50;;;6.40;81.00;;;;;;4977673;28;20197;-78
2022/01/05 04:39:13;;;;;;;1.40;0.60;;;6.40;81.10;;;;;;4979554;28;20190;-77
2022/01/05 04:41:41;;;;;;;1.30;0.47;;;6.40;80.90;;;;;;4997089;28;20189;-77
2022/01/05 04:44:08;;;;;;;1.40;0.50;;;6.50;81.00;;;;;;4995301;28;20189;-77
2022/01/05 04:46:35;;;;;;;1.30;0.50;;;6.50;80.90;;;;;;4996877;28;20260;-77
2022/01/05 04:49:04;;;;;;;1.90;0.70;;;6.40;79.80;;;;;;4994226;28;20236;-77
2022/01/05 04:51:33;;;;;;;2.08;0.75;;;6.30;79.50;;;;;;4977337;28;20240;-78
2022/01/05 04:54:05;;;;;;;1.35;0.50;;;6.30;80.30;;;;;;4978402;28;20604;-78
2022/01/05 04:56:33;;;;;;;1.40;0.50;;;6.20;80.70;;;;;;4996760;28;20193;-77
2022/01/05 04:59:01;;;;;;;1.40;0.60;;;6.20;80.80;;;;;;4994770;28;20208;-77
2022/01/05 05:01:28;;;;;;;1.55;0.65;;;6.20;81.00;;;;;;4977826;28;20320;-78
2022/01/05 05:03:56;;;;;;;1.50;0.70;;;6.20;81.10;;;;;;4977388;28;20264;-76
2022/01/05 05:06:24;;;;;;;2.00;0.60;;;6.20;81.40;;;;;;4996348;28;20224;-77
2022/01/05 05:08:52;;;;;;;3.78;0.75;;;6.20;80.20;;;;;;4988994;28;20264;-77
2022/01/05 05:11:20;;;;;;;1.50;0.60;;;6.20;81.00;;;;;;4977031;28;20197;-77
2022/01/05 05:13:47;;;;;;;1.40;0.55;;;6.10;80.80;;;;;;4982423;28;20189;-77
2022/01/05 05:16:14;;;;;;;1.50;0.60;;;6.00;81.30;;;;;;4996061;28;20201;-76
2022/01/05 05:18:44;;;;;;;1.50;0.70;;;6.00;81.70;;;;;;4993733;28;20213;-77
2022/01/05 05:21:11;;;;;;;1.30;0.50;;;6.10;82.00;;;;;;4996369;28;20201;-77
2022/01/05 05:23:38;;;;;;;1.50;0.50;;;6.10;81.40;;;;;;4995820;28;20182;-77
2022/01/05 05:26:12;;;;;;;2.03;0.57;;;6.10;81.30;;;;;;4995728;28;20221;-77
2022/01/05 05:28:42;;;;;;;1.63;0.55;;;6.10;81.70;;;;;;4995997;28;20193;-76
2022/01/05 05:31:15;;;;;;;1.60;0.63;;;6.10;81.20;;;;;;4995804;28;20565;-76
2022/01/05 05:33:42;;;;;;;1.50;0.60;;;6.10;81.60;;;;;;4995880;28;20204;-77
2022/01/05 05:36:10;;;;;;;1.40;0.60;;;6.10;82.10;;;;;;4994962;28;20201;-76
2022/01/05 05:38:38;;;;;;;1.40;0.50;;;6.10;82.40;;;;;;4995492;28;20200;-77
2022/01/05 05:41:09;;;;;;;1.42;0.60;;;6.10;82.00;;;;;;4995589;28;20283;-77
2022/01/05 05:43:38;;;;;;;1.65;0.60;;;6.00;82.20;;;;;;4995622;28;20235;-77
2022/01/05 05:46:05;;;;;;;1.83;0.82;;;6.00;82.00;;;;;;4995253;28;20575;-77
2022/01/05 05:48:34;;;;;;;1.55;0.75;;;6.00;82.40;;;;;;4995302;28;20953;-77
2022/01/05 05:51:01;;;;;;;1.77;0.68;;;6.00;83.00;;;;;;4995754;28;20201;-77
2022/01/05 05:53:29;;;;;;;1.50;0.60;;;6.00;82.20;;;;;;4995095;28;20258;-77
2022/01/05 05:55:56;;;;;;;2.03;1.10;;;6.00;82.30;;;;;;4995557;28;20591;-77
2022/01/05 05:58:23;;;;;;;1.80;0.98;;;6.00;82.80;;;;;;4994591;28;20189;-77
2022/01/05 06:00:52;;;;;;;2.20;1.40;;;6.00;82.70;;;;;;4995378;28;20255;-76
2022/01/05 06:03:19;;;;;;;3.05;2.28;;;5.90;83.00;;;;;;4994560;28;20196;-76
2022/01/05 06:05:47;;;;;;;6.32;3.80;;;5.90;83.20;;;;;;4995270;28;20192;-77
2022/01/05 06:08:14;;;;;;;4.22;3.30;;;5.90;83.70;;;;;;4994393;28;20209;-77
2022/01/05 06:10:44;;;;;;;5.10;2.90;;;5.80;84.70;;;;;;4995318;28;20197;-77
2022/01/05 06:13:12;;;;;;;2.60;1.90;;;5.90;84.50;;;;;;4994954;28;20192;-76
2022/01/05 06:15:39;;;;;;;2.33;1.10;;;6.00;84.90;;;;;;4995362;28;20197;-76
2022/01/05 06:18:08;;;;;;;2.13;1.10;;;6.10;84.90;;;;;;4994552;28;20553;-77
2022/01/05 06:20:35;;;;;;;1.70;0.93;;;6.10;85.10;;;;;;4994773;28;20240;-77
2022/01/05 06:23:03;;;;;;;1.90;1.00;;;6.20;85.00;;;;;;4994224;28;20189;-77
2022/01/05 06:25:31;;;;;;;1.52;0.60;;;6.20;85.00;;;;;;4994973;28;20644;-77
2022/01/05 06:27:58;;;;;;;2.42;1.33;;;6.20;84.50;;;;;;4994204;28;20725;-77
2022/01/05 06:30:26;;;;;;;2.63;1.38;;;6.30;83.70;;;;;;4995028;28;20581;-77
2022/01/05 06:32:53;;;;;;;2.05;0.80;;;6.20;83.90;;;;;;4993940;28;20593;-76
2022/01/05 06:35:24;;;;;;;3.05;0.98;;;6.20;83.60;;;;;;4975413;28;20201;-77
2022/01/05 06:37:52;;;;;;;1.75;0.90;;;6.10;83.70;;;;;;4984625;28;20185;-77
2022/01/05 06:40:22;;;;;;;2.63;1.20;;;6.10;84.10;;;;;;4994715;28;20200;-77
2022/01/05 06:42:49;;;;;;;2.40;0.90;;;6.10;83.90;;;;;;4993965;28;20185;-76
2022/01/05 06:45:17;;;;;;;5.03;0.85;;;6.20;84.20;;;;;;4987052;28;20289;-77
2022/01/05 06:47:56;;;;;;;1.70;0.70;;;6.20;84.40;;;;;;4975412;28;20214;-77
2022/01/05 06:50:26;;;;;;;2.72;0.90;;;6.20;84.30;;;;;;4974726;28;20596;-77
2022/01/05 06:52:55;;;;;;;1.88;0.90;;;6.20;84.30;;;;;;4977184;28;20186;-75
2022/01/05 06:55:23;;;;;;;3.05;1.50;;;6.30;84.50;;;;;;4992462;28;20193;-77
2022/01/05 06:57:51;;;;;;;3.35;1.48;;;6.30;84.70;;;;;;4989186;28;20201;-77
2022/01/05 07:00:20;;;;;;;2.30;1.45;;;6.30;84.60;;;;;;4974628;28;20197;-77
2022/01/05 07:02:48;;;;;;;2.25;1.27;;;6.40;84.70;;;;;;4974445;28;20181;-76
2022/01/05 07:05:17;;;;;;;3.47;1.65;;;6.40;85.50;;;;;;4976285;28;20197;-77
2022/01/05 07:07:46;;;;;;;2.30;1.38;;;6.40;84.80;;;;;;4986460;28;20225;-77
2022/01/05 07:10:18;;;;;;;3.40;1.02;;;6.40;85.30;;;;;;4974275;28;20205;-76
2022/01/05 07:12:46;;;;;;;2.08;0.98;;;6.50;85.20;;;;;;4978737;28;20193;-76
2022/01/05 07:15:14;;;;;;;1.95;0.70;;;6.50;85.20;;;;;;4992163;28;20192;-76
2022/01/05 07:17:42;;;;;;;4.82;2.67;;;6.40;84.60;;;;;;4991475;28;20185;-77
2022/01/05 07:20:11;;;;;;;2.13;0.90;;;6.40;84.80;;;;;;4992007;28;20216;-77
2022/01/05 07:22:42;;;;;;;1.50;0.60;;;6.40;84.20;;;;;;4991821;28;20252;-77
2022/01/05 07:25:12;;;;;;;2.38;0.75;;;6.30;84.10;;;;;;4976266;28;20240;-76
2022/01/05 07:27:39;;;;;;;1.88;0.80;;;6.30;84.10;;;;;;4973883;28;20222;-77
2022/01/05 07:30:07;;;;;;;1.60;0.80;;;6.40;84.40;;;;;;4974321;28;20228;-78
2022/01/05 07:32:35;;;;;;;1.60;0.80;;;6.40;84.20;;;;;;4974305;28;20703;-77
2022/01/05 07:35:02;;;;;;;2.05;0.80;;;6.40;83.90;;;;;;4990785;28;20197;-77
2022/01/05 07:37:29;;;;;;;1.88;0.80;;;6.30;83.60;;;;;;4992469;28;20300;-77
2022/01/05 07:39:56;;;;;;;1.40;0.50;;;6.30;82.80;;;;;;4992465;28;20192;-77
2022/01/05 07:42:24;;;;;;;1.52;0.70;;;6.40;83.60;;;;;;4990953;28;20682;-77
2022/01/05 07:44:53;;;;;;;1.55;0.68;;;6.40;83.50;;;;;;4990927;28;20239;-77
2022/01/05 07:47:20;;;;;;;1.60;0.65;;;6.40;83.70;;;;;;4988607;28;20223;-77
2022/01/05 07:49:47;;;;;;;1.38;0.63;;;6.40;84.10;;;;;;4991921;28;20192;-77
2022/01/05 07:52:14;;;;;;;2.30;0.80;;;6.40;83.40;;;;;;4980712;28;20235;-77
2022/01/05 07:54:41;;;;;;;3.13;0.80;;;6.30;83.00;;;;;;4991795;28;20193;-77
2022/01/05 07:57:09;;;;;;;1.40;0.60;;;6.30;83.10;;;;;;4991535;28;20224;-77
2022/01/05 07:59:38;;;;;;;1.60;0.65;;;6.30;83.30;;;;;;4991470;28;20192;-78
2022/01/05 08:02:05;;;;;;;1.50;0.65;;;6.30;83.30;;;;;;4984157;28;20197;-76
2022/01/05 08:04:32;;;;;;;1.60;0.80;;;6.30;83.90;;;;;;4973304;28;20634;-77
2022/01/05 08:06:59;;;;;;;1.50;0.60;;;6.40;83.10;;;;;;4977502;28;20271;-78
2022/01/05 08:09:29;;;;;;;2.15;0.70;;;6.40;83.20;;;;;;4973575;28;20201;-78
2022/01/05 08:12:01;;;;;;;1.50;0.70;;;6.40;83.00;;;;;;4988500;28;20686;-78
2022/01/05 08:14:29;;;;;;;1.63;0.65;;;6.40;82.60;;;;;;4991127;28;20189;-78
2022/01/05 08:16:57;;;;;;;2.38;1.00;;;6.40;82.50;;;;;;4990011;28;20196;-78
2022/01/05 08:19:24;;;;;;;3.63;1.98;;;6.40;82.40;;;;;;4989270;28;20303;-78
2022/01/05 08:21:51;;;;;;;2.40;1.50;;;6.40;82.30;;;;;;4973727;28;20232;-78
2022/01/05 08:24:18;;;;;;;1.90;0.80;;;6.50;82.40;;;;;;4980969;28;20281;-77
2022/01/05 08:26:45;;;;;;;1.80;0.98;;;6.50;82.70;;;;;;4991150;28;20367;-77
2022/01/05 08:29:12;;;;;;;2.53;0.85;;;6.50;82.40;;;;;;4991133;28;20196;-77
2022/01/05 08:31:39;;;;;;;1.60;0.75;;;6.60;83.40;;;;;;4991499;28;20259;-78
2022/01/05 08:34:08;;;;;;;1.60;0.60;;;6.50;82.80;;;;;;4978066;28;20544;-78
2022/01/05 08:36:35;;;;;;;1.92;0.98;;;6.60;83.10;;;;;;4989892;28;20259;-76
2022/01/05 08:39:03;;;;;;;3.28;1.30;;;6.60;82.50;;;;;;4990988;28;20244;-78
2022/01/05 08:41:30;;;;;;;2.40;1.33;;;6.60;82.60;;;;;;4990599;28;20559;-79
2022/01/05 08:43:58;;;;;;;1.90;1.00;;;6.60;82.50;;;;;;4974773;28;20197;-79
2022/01/05 08:46:26;;;;;;;2.25;1.13;;;6.60;82.60;;;;;;4974593;28;20204;-78
2022/01/05 08:48:54;;;;;;;1.40;0.60;;;6.60;82.80;;;;;;4973012;28;20234;-79
2022/01/05 08:51:23;;;;;;;2.13;0.85;;;6.60;82.40;;;;;;4974406;28;20625;-78
2022/01/05 08:53:51;;;;;;;1.40;0.50;;;6.70;81.80;;;;;;4973972;28;20198;-79
2022/01/05 08:56:21;;;;;;;1.70;0.70;;;6.70;81.60;;;;;;4984991;28;20189;-78
2022/01/05 08:58:50;;;;;;;1.60;0.65;;;6.70;81.70;;;;;;4975493;28;20201;-78
2022/01/05 09:01:18;;;;;;;1.60;0.68;;;6.70;82.60;;;;;;4980308;28;20193;-79
2022/01/05 09:03:45;;;;;;;1.80;0.60;;;6.70;81.70;;;;;;4990481;28;20197;-78
2022/01/05 09:06:13;;;;;;;1.40;0.50;;;6.70;81.70;;;;;;4990553;28;20189;-78
2022/01/05 09:08:41;;;;;;;1.38;0.52;;;6.70;81.10;;;;;;4991052;28;20228;-78
2022/01/05 09:11:11;;;;;;;3.20;0.80;;;6.70;80.70;;;;;;4983038;28;20719;-79
2022/01/05 09:13:38;;;;;;;1.45;0.68;;;6.70;80.50;;;;;;4976958;28;20185;-79
2022/01/05 09:16:06;;;;;;;1.90;0.80;;;6.70;80.90;;;;;;4976585;28;20260;-79
2022/01/05 09:18:33;;;;;;;2.42;0.95;;;6.70;81.30;;;;;;4977160;28;20190;-79
2022/01/05 09:21:02;;;;;;;3.97;2.00;;;6.70;81.30;;;;;;4983057;28;20201;-79
2022/01/05 09:23:29;;;;;;;3.53;1.88;;;6.70;81.20;;;;;;4978639;28;20193;-79
2022/01/05 09:25:58;;;;;;;2.63;1.55;;;6.70;80.40;;;;;;4982357;28;20189;-79
2022/01/05 09:28:28;;;;;;;2.45;1.40;;;6.70;81.10;;;;;;4993799;28;20725;-79
2022/01/05 09:30:55;;;;;;;2.10;1.05;;;6.70;80.90;;;;;;4981546;28;20231;-80
2022/01/05 09:33:23;;;;;;;1.50;0.70;;;6.70;81.10;;;;;;4993800;28;20887;-79
2022/01/05 09:36:04;;;;;;;2.22;1.75;;;6.70;80.10;;;;;;4993659;28;20189;-79
2022/01/05 09:41:56;;;;;;;2.78;2.50;;;6.70;79.90;;;;;;4978144;28;20185;-79
2022/01/05 09:44:11;;;;;;;1.92;1.50;;;6.40;76.40;;;;;;4993780;28;20207;-79
2022/01/05 09:46:46;;;;;;;1.83;0.80;;;6.20;76.20;;;;;;4993321;28;20216;-79
2022/01/05 09:49:18;;;;;;;1.50;0.70;;;6.00;75.70;;;;;;4991285;28;20686;-78
2022/01/05 09:51:51;;;;;;;1.80;1.00;;;5.90;76.10;;;;;;4994453;28;20607;-79
2022/01/05 09:54:19;;;;;;;1.50;0.73;;;5.80;76.20;;;;;;4994407;28;20290;-79
2022/01/05 09:56:49;;;;;;;2.00;1.17;;;5.70;76.90;;;;;;4992228;28;20209;-78
2022/01/05 09:59:16;;;;;;;2.88;1.20;;;5.80;77.30;;;;;;4976032;28;20189;-78
2022/01/05 10:01:43;;;;;;;3.58;1.25;;;5.80;77.50;;;;;;4977023;28;20520;-78
2022/01/05 10:04:13;;;;;;;1.80;0.75;;;5.80;77.10;;;;;;4975853;28;20229;-76
2022/01/05 10:06:41;;;;;;;1.58;1.00;;;5.80;77.20;;;;;;4976053;28;20197;-78
2022/01/05 10:09:09;;;;;;;75.70;29.02;;;5.80;76.90;;;;;;4975926;28;20237;-79
2022/01/05 10:11:41;;;;;;;6.50;3.88;;;5.80;77.30;;;;;;4978621;28;20193;-78
2022/01/05 10:14:13;;;;;;;6.78;4.32;;;5.70;76.80;;;;;;4989489;28;20232;-79
2022/01/05 10:16:41;;;;;;;4.43;2.92;;;5.80;77.10;;;;;;4992611;28;20197;-78
2022/01/05 10:19:09;;;;;;;3.60;2.83;;;5.80;77.30;;;;;;4988800;28;20356;-78
2022/01/05 10:21:38;;;;;;;5.25;3.75;;;5.80;77.10;;;;;;4975665;28;20227;-79
2022/01/05 10:24:06;;;;;;;4.80;4.40;;;5.80;77.20;;;;;;4977232;28;20922;-78
2022/01/05 10:26:40;;;;;;;4.25;3.30;;;5.80;77.30;;;;;;4979498;28;20189;-78
2022/01/05 10:29:15;;;;;;;4.75;3.53;;;5.90;77.40;;;;;;4975693;28;20256;-79
2022/01/05 10:31:43;;;;;;;2.30;1.73;;;5.90;77.10;;;;;;4975488;28;20251;-78
2022/01/05 10:34:18;;;;;;;3.80;1.60;;;5.90;77.00;;;;;;4991270;28;20193;-78
2022/01/05 10:36:47;;;;;;;2.60;1.25;;;6.00;77.30;;;;;;4991136;28;20209;-78
2022/01/05 10:39:14;;;;;;;2.53;1.50;;;6.00;77.10;;;;;;4985961;28;20644;-78
2022/01/05 10:41:43;;;;;;;2.22;1.58;;;6.00;76.60;;;;;;4986790;28;20690;-78
2022/01/05 10:44:23;;;;;;;18.90;11.00;;;6.00;76.60;;;;;;4988956;28;20240;-78
2022/01/05 10:46:51;;;;;;;56.03;24.25;;;6.10;77.30;;;;;;4984477;28;20233;-78
2022/01/05 10:49:27;;;;;;;122.20;50.38;;;6.10;76.60;;;;;;4987305;28;20354;-77
2022/01/05 10:51:55;;;;;;;101.13;47.45;;;6.20;77.20;;;;;;4987581;28;20260;-78
2022/01/05 10:54:24;;;;;;;58.65;30.50;;;6.20;77.10;;;;;;4990985;28;20205;-78
2022/01/05 10:56:51;;;;;;;12.02;9.23;;;6.30;77.00;;;;;;4991093;28;20203;-78
2022/01/05 10:59:35;;;;;;;2.60;1.50;;;6.40;76.60;;;;;;4990766;28;20255;-74
2022/01/05 11:02:38;;;;;;;2.55;1.63;;;6.40;76.50;;;;;;4986865;28;20209;-78
2022/01/05 11:05:17;;;;;;;2.45;1.50;;;6.50;76.90;;;;;;4986396;28;20238;-78
2022/01/05 11:07:47;;;;;;;2.38;1.63;;;6.60;76.80;;;;;;4989148;28;20634;-75
2022/01/05 11:10:22;;;;;;;4.50;3.00;;;6.70;76.50;;;;;;4990792;28;20212;-78
2022/01/05 11:12:53;;;;;;;3.35;1.70;;;6.70;76.00;;;;;;4985747;28;20270;-78
2022/01/05 11:15:27;;;;;;;3.90;2.30;;;6.80;75.80;;;;;;4984201;28;20572;-77
2022/01/05 11:18:13;;;;;;;2.35;1.45;;;6.80;75.80;;;;;;4989620;28;20200;-78
2022/01/05 11:20:49;;;;;;;2.60;1.88;;;6.80;75.70;;;;;;4990226;28;20271;-78
2022/01/05 11:23:22;;;;;;;22.95;17.70;;;6.80;75.30;;;;;;4977716;28;20185;-77
2022/01/05 11:25:58;;;;;;;17.67;14.15;;;6.70;74.70;;;;;;4974134;28;20648;-78
2022/01/05 11:28:27;;;;;;;6.13;3.20;;;6.70;75.00;;;;;;4987393;28;20309;-78
2022/01/05 11:31:00;;;;;;;2.90;2.00;;;6.60;74.90;;;;;;4991247;28;20202;-77
2022/01/05 11:33:37;;;;;;;4.93;3.95;;;6.60;74.90;;;;;;4985525;28;20185;-77
2022/01/05 11:36:04;;;;;;;3.08;2.42;;;6.50;74.90;;;;;;4973366;28;20289;-76
2022/01/05 11:38:32;;;;;;;2.78;1.67;;;6.50;75.50;;;;;;4975046;28;20699;-78
2022/01/05 11:41:01;;;;;;;2.95;1.83;;;6.40;75.50;;;;;;4977849;28;20198;-78
2022/01/05 11:43:32;;;;;;;3.67;2.00;;;6.30;76.20;;;;;;4979513;28;20577;-79
2022/01/05 11:46:14;;;;;;;2.10;1.00;;;6.20;77.10;;;;;;4976468;28;20266;-78
2022/01/05 11:48:58;;;;;;;3.35;1.77;;;6.10;76.50;;;;;;4988998;28;20259;-78
2022/01/05 11:51:31;;;;;;;2.50;1.10;;;6.00;76.10;;;;;;4990788;28;20193;-78
2022/01/05 11:54:14;;;;;;;1.70;0.80;;;5.90;74.80;;;;;;4991319;28;20201;-78
2022/01/05 11:56:42;;;;;;;3.55;0.93;;;5.80;73.50;;;;;;4976091;28;20201;-78
2022/01/05 11:59:26;;;;;;;2.70;1.45;;;5.70;73.30;;;;;;4984334;28;20260;-78
2022/01/05 12:02:08;;;;;;;9.45;5.97;;;5.70;73.10;;;;;;4990274;28;20192;-78
2022/01/05 12:04:59;;;;;;;6.80;3.72;;;5.60;73.50;;;;;;4991332;28;20196;-78
2022/01/05 12:07:37;;;;;;;8.32;7.43;;;5.60;73.80;;;;;;4991348;28;20204;-77
2022/01/05 12:10:21;;;;;;;3.88;2.83;;;5.50;73.30;;;;;;4973994;28;20240;-79
2022/01/05 12:13:01;;;;;;;2.05;1.23;;;5.30;72.20;;;;;;4988003;28;20197;-78
2022/01/05 12:15:46;;;;;;;1.80;1.00;;;5.20;71.80;;;;;;4977641;28;20185;-78
2022/01/05 12:18:23;;;;;;;3.42;1.15;;;5.10;72.70;;;;;;4987791;28;20328;-77
2022/01/05 12:20:51;;;;;;;2.70;1.27;;;5.10;73.10;;;;;;4989135;28;20248;-78
2022/01/05 12:23:22;;;;;;;2.08;1.00;;;5.10;73.00;;;;;;4972454;28;20682;-78
2022/01/05 12:26:15;;;;;;;4.72;2.97;;;5.20;73.40;;;;;;4990790;28;20204;-78
2022/01/05 12:28:53;;;;;;;13.25;6.30;;;5.20;73.50;;;;;;4974315;28;20239;-77
2022/01/05 12:32:01;;;;;;;4.00;3.60;;;5.20;73.50;;;;;;4976938;28;20203;-78
2022/01/05 12:34:55;;;;;;;3.08;2.22;;;5.30;74.30;;;;;;4984493;28;20193;-78
2022/01/05 12:38:04;;;;;;;6.07;5.30;;;5.40;73.90;;;;;;4985526;28;20602;-76
2022/01/05 12:40:33;;;;;;;9.00;7.90;;;5.50;73.80;;;;;;4911536;29;20226;-78
2022/01/05 12:43:33;;;;;;;6.32;5.50;;;5.60;73.50;;;;;;4976179;28;20252;-78
2022/01/05 12:46:05;;;;;;;3.40;1.80;;;5.70;72.80;;;;;;4990876;28;21027;-76
2022/01/05 12:49:06;;;;;;;8.50;1.75;;;5.80;72.70;;;;;;4993782;28;20275;-75
2022/01/05 12:51:56;;;;;;;3.33;1.83;;;5.80;71.70;;;;;;4987368;28;20201;-77
2022/01/05 12:54:25;;;;;;;3.28;1.30;;;5.80;71.80;;;;;;4995137;28;20193;-78
2022/01/05 12:57:02;;;;;;;2.70;1.58;;;5.80;72.20;;;;;;4994390;28;20280;-77
2022/01/05 12:59:32;;;;;;;2.78;1.25;;;5.80;72.40;;;;;;4994998;28;20768;-78
2022/01/05 13:02:01;;;;;;;2.67;1.30;;;5.90;71.90;;;;;;4993591;28;20255;-78
2022/01/05 13:04:32;;;;;;;2.35;1.15;;;5.90;71.50;;;;;;4994691;28;20200;-78
2022/01/05 13:07:04;;;;;;;1.88;1.10;;;5.80;71.80;;;;;;4990499;28;20651;-77
2022/01/05 13:09:33;;;;;;;2.28;1.30;;;5.90;71.40;;;;;;4976468;28;20647;-78
2022/01/05 13:12:02;;;;;;;2.20;0.95;;;5.80;69.80;;;;;;4982599;28;20189;-76
2022/01/05 13:14:32;;;;;;;2.50;1.15;;;5.80;68.90;;;;;;4982287;28;20232;-78
2022/01/05 13:17:01;;;;;;;2.15;1.30;;;5.70;67.00;;;;;;4993931;28;20240;-77